sensor_id;sensor_type;location;lat;lon;timestamp;P1;durP1;ratioP1;P2;durP2;ratioP2
22421;SDS011;11378;51.642;7.668;2022-12-10T00:01:11;6.55;;;4.80;;
22421;SDS011;11378;51.642;7.668;2022-12-10T00:03:37;5.80;;;4.53;;
22421;SDS011;11378;51.642;7.668;2022-12-10T00:06:05;5.50;;;4.20;;
22421;SDS011;11378;51.642;7.668;2022-12-10T00:08:31;6.47;;;5.03;;
22421;SDS011;11378;51.642;7.668;2022-12-10T00:10:59;5.63;;;4.50;;
22421;SDS011;11378;51.642;7.668;2022-12-10T00:13:25;6.30;;;4.80;;
22421;SDS011;11378;51.642;7.668;2022-12-10T00:15:51;6.95;;;4.97;;
22421;SDS011;11378;51.642;7.668;2022-12-10T00:18:18;6.47;;;4.68;;
22421;SDS011;11378;51.642;7.668;2022-12-10T00:20:44;6.15;;;4.68;;
22421;SDS011;11378;51.642;7.668;2022-12-10T00:23:10;5.07;;;4.40;;
22421;SDS011;11378;51.642;7.668;2022-12-10T00:25:37;5.53;;;4.13;;
22421;SDS011;11378;51.642;7.668;2022-12-10T00:28:03;5.25;;;4.47;;
22421;SDS011;11378;51.642;7.668;2022-12-10T00:30:30;6.45;;;4.57;;
22421;SDS011;11378;51.642;7.668;2022-12-10T00:32:56;6.70;;;5.15;;
22421;SDS011;11378;51.642;7.668;2022-12-10T00:35:22;6.00;;;4.68;;
22421;SDS011;11378;51.642;7.668;2022-12-10T00:37:51;6.82;;;4.50;;
22421;SDS011;11378;51.642;7.668;2022-12-10T00:40:17;5.80;;;4.60;;
22421;SDS011;11378;51.642;7.668;2022-12-10T00:42:43;6.38;;;4.65;;
22421;SDS011;11378;51.642;7.668;2022-12-10T00:45:11;7.20;;;4.95;;
22421;SDS011;11378;51.642;7.668;2022-12-10T00:47:37;5.10;;;4.18;;
22421;SDS011;11378;51.642;7.668;2022-12-10T00:50:04;5.97;;;4.85;;
22421;SDS011;11378;51.642;7.668;2022-12-10T00:52:30;7.30;;;4.78;;
22421;SDS011;11378;51.642;7.668;2022-12-10T00:54:57;6.07;;;4.38;;
22421;SDS011;11378;51.642;7.668;2022-12-10T00:57:23;6.57;;;4.45;;
22421;SDS011;11378;51.642;7.668;2022-12-10T00:59:49;6.43;;;4.47;;
22421;SDS011;11378;51.642;7.668;2022-12-10T01:02:16;9.15;;;5.05;;
22421;SDS011;11378;51.642;7.668;2022-12-10T01:04:42;5.20;;;4.30;;
22421;SDS011;11378;51.642;7.668;2022-12-10T01:07:09;6.47;;;4.60;;
22421;SDS011;11378;51.642;7.668;2022-12-10T01:09:35;6.30;;;4.80;;
22421;SDS011;11378;51.642;7.668;2022-12-10T01:12:02;6.05;;;4.65;;
22421;SDS011;11378;51.642;7.668;2022-12-10T01:14:30;5.63;;;4.22;;
22421;SDS011;11378;51.642;7.668;2022-12-10T01:17:01;5.53;;;4.20;;
22421;SDS011;11378;51.642;7.668;2022-12-10T01:19:28;5.82;;;4.63;;
22421;SDS011;11378;51.642;7.668;2022-12-10T01:21:54;5.32;;;4.50;;
22421;SDS011;11378;51.642;7.668;2022-12-10T01:24:25;5.53;;;4.32;;
22421;SDS011;11378;51.642;7.668;2022-12-10T01:26:52;5.28;;;4.45;;
22421;SDS011;11378;51.642;7.668;2022-12-10T01:29:20;6.18;;;4.45;;
22421;SDS011;11378;51.642;7.668;2022-12-10T01:31:47;5.65;;;4.55;;
22421;SDS011;11378;51.642;7.668;2022-12-10T01:34:16;5.32;;;4.30;;
22421;SDS011;11378;51.642;7.668;2022-12-10T01:36:43;6.32;;;4.65;;
22421;SDS011;11378;51.642;7.668;2022-12-10T01:39:11;5.80;;;4.55;;
22421;SDS011;11378;51.642;7.668;2022-12-10T01:41:57;6.07;;;4.63;;
22421;SDS011;11378;51.642;7.668;2022-12-10T01:46:51;5.13;;;4.07;;
22421;SDS011;11378;51.642;7.668;2022-12-10T01:49:20;4.95;;;4.40;;
22421;SDS011;11378;51.642;7.668;2022-12-10T01:51:48;5.40;;;4.50;;
22421;SDS011;11378;51.642;7.668;2022-12-10T01:54:19;6.32;;;4.75;;
22421;SDS011;11378;51.642;7.668;2022-12-10T01:56:47;5.47;;;4.60;;
22421;SDS011;11378;51.642;7.668;2022-12-10T01:59:16;6.05;;;4.68;;
22421;SDS011;11378;51.642;7.668;2022-12-10T02:02:00;5.90;;;4.28;;
22421;SDS011;11378;51.642;7.668;2022-12-10T02:04:33;6.55;;;4.53;;
22421;SDS011;11378;51.642;7.668;2022-12-10T02:07:15;5.50;;;4.40;;
22421;SDS011;11378;51.642;7.668;2022-12-10T02:09:48;6.75;;;5.07;;
22421;SDS011;11378;51.642;7.668;2022-12-10T02:17:29;6.00;;;4.45;;
22421;SDS011;11378;51.642;7.668;2022-12-10T02:22:25;5.10;;;4.00;;
22421;SDS011;11378;51.642;7.668;2022-12-10T02:24:52;5.22;;;4.25;;
22421;SDS011;11378;51.642;7.668;2022-12-10T02:30:16;6.18;;;4.40;;
22421;SDS011;11378;51.642;7.668;2022-12-10T02:32:43;4.55;;;4.10;;
22421;SDS011;11378;51.642;7.668;2022-12-10T02:35:13;6.10;;;4.00;;
22421;SDS011;11378;51.642;7.668;2022-12-10T02:37:52;5.45;;;3.90;;
22421;SDS011;11378;51.642;7.668;2022-12-10T02:40:20;6.22;;;4.18;;
22421;SDS011;11378;51.642;7.668;2022-12-10T02:42:51;5.30;;;4.47;;
22421;SDS011;11378;51.642;7.668;2022-12-10T02:45:20;5.88;;;4.30;;
22421;SDS011;11378;51.642;7.668;2022-12-10T02:50:16;5.35;;;4.05;;
22421;SDS011;11378;51.642;7.668;2022-12-10T02:52:44;5.47;;;4.00;;
22421;SDS011;11378;51.642;7.668;2022-12-10T02:55:12;4.85;;;3.75;;
22421;SDS011;11378;51.642;7.668;2022-12-10T03:00:20;4.85;;;3.80;;
22421;SDS011;11378;51.642;7.668;2022-12-10T03:05:45;4.88;;;3.97;;
22421;SDS011;11378;51.642;7.668;2022-12-10T03:11:07;6.18;;;4.10;;
22421;SDS011;11378;51.642;7.668;2022-12-10T03:13:39;5.15;;;3.83;;
22421;SDS011;11378;51.642;7.668;2022-12-10T03:16:06;5.35;;;3.88;;
22421;SDS011;11378;51.642;7.668;2022-12-10T03:18:33;5.30;;;3.80;;
22421;SDS011;11378;51.642;7.668;2022-12-10T03:21:03;5.00;;;4.10;;
22421;SDS011;11378;51.642;7.668;2022-12-10T03:23:30;4.50;;;3.70;;
22421;SDS011;11378;51.642;7.668;2022-12-10T03:25:57;6.35;;;4.13;;
22421;SDS011;11378;51.642;7.668;2022-12-10T03:28:24;5.10;;;4.07;;
22421;SDS011;11378;51.642;7.668;2022-12-10T03:30:52;4.70;;;3.65;;
22421;SDS011;11378;51.642;7.668;2022-12-10T03:33:19;4.65;;;3.58;;
22421;SDS011;11378;51.642;7.668;2022-12-10T03:35:46;4.78;;;3.78;;
22421;SDS011;11378;51.642;7.668;2022-12-10T03:38:13;4.28;;;3.75;;
22421;SDS011;11378;51.642;7.668;2022-12-10T03:40:40;5.68;;;4.00;;
22421;SDS011;11378;51.642;7.668;2022-12-10T03:43:06;4.50;;;3.63;;
22421;SDS011;11378;51.642;7.668;2022-12-10T03:45:32;5.40;;;3.95;;
22421;SDS011;11378;51.642;7.668;2022-12-10T03:47:59;5.05;;;3.70;;
22421;SDS011;11378;51.642;7.668;2022-12-10T03:50:25;4.95;;;3.65;;
22421;SDS011;11378;51.642;7.668;2022-12-10T03:52:52;5.45;;;3.88;;
22421;SDS011;11378;51.642;7.668;2022-12-10T03:55:18;4.60;;;3.75;;
22421;SDS011;11378;51.642;7.668;2022-12-10T03:57:46;4.38;;;3.35;;
22421;SDS011;11378;51.642;7.668;2022-12-10T04:00:13;5.82;;;3.67;;
22421;SDS011;11378;51.642;7.668;2022-12-10T04:02:40;5.53;;;3.92;;
22421;SDS011;11378;51.642;7.668;2022-12-10T04:05:06;4.57;;;3.75;;
22421;SDS011;11378;51.642;7.668;2022-12-10T04:07:33;4.63;;;3.83;;
22421;SDS011;11378;51.642;7.668;2022-12-10T04:10:00;4.20;;;3.53;;
22421;SDS011;11378;51.642;7.668;2022-12-10T04:12:26;4.20;;;3.50;;
22421;SDS011;11378;51.642;7.668;2022-12-10T04:14:53;4.57;;;3.70;;
22421;SDS011;11378;51.642;7.668;2022-12-10T04:17:38;5.03;;;3.72;;
22421;SDS011;11378;51.642;7.668;2022-12-10T04:20:04;4.32;;;3.72;;
22421;SDS011;11378;51.642;7.668;2022-12-10T04:22:52;4.40;;;3.53;;
22421;SDS011;11378;51.642;7.668;2022-12-10T04:25:36;3.78;;;3.35;;
22421;SDS011;11378;51.642;7.668;2022-12-10T04:28:21;4.25;;;3.40;;
22421;SDS011;11378;51.642;7.668;2022-12-10T04:30:48;4.00;;;3.28;;
22421;SDS011;11378;51.642;7.668;2022-12-10T04:33:14;3.83;;;3.22;;
22421;SDS011;11378;51.642;7.668;2022-12-10T04:35:40;4.85;;;3.17;;
22421;SDS011;11378;51.642;7.668;2022-12-10T04:38:07;4.40;;;3.38;;
22421;SDS011;11378;51.642;7.668;2022-12-10T04:40:33;4.85;;;3.70;;
22421;SDS011;11378;51.642;7.668;2022-12-10T04:43:00;3.88;;;3.45;;
22421;SDS011;11378;51.642;7.668;2022-12-10T04:45:26;3.20;;;2.90;;
22421;SDS011;11378;51.642;7.668;2022-12-10T04:47:52;3.55;;;3.13;;
22421;SDS011;11378;51.642;7.668;2022-12-10T04:50:19;4.10;;;3.20;;
22421;SDS011;11378;51.642;7.668;2022-12-10T04:52:45;3.95;;;3.40;;
22421;SDS011;11378;51.642;7.668;2022-12-10T04:55:11;3.50;;;3.03;;
22421;SDS011;11378;51.642;7.668;2022-12-10T04:57:38;3.42;;;3.13;;
22421;SDS011;11378;51.642;7.668;2022-12-10T05:00:04;3.63;;;3.05;;
22421;SDS011;11378;51.642;7.668;2022-12-10T05:02:31;3.65;;;3.25;;
22421;SDS011;11378;51.642;7.668;2022-12-10T05:04:57;3.47;;;3.15;;
22421;SDS011;11378;51.642;7.668;2022-12-10T05:07:24;3.55;;;2.97;;
22421;SDS011;11378;51.642;7.668;2022-12-10T05:09:50;4.00;;;3.10;;
22421;SDS011;11378;51.642;7.668;2022-12-10T05:12:16;4.47;;;3.60;;
22421;SDS011;11378;51.642;7.668;2022-12-10T05:14:43;3.28;;;2.92;;
22421;SDS011;11378;51.642;7.668;2022-12-10T05:17:09;3.72;;;3.10;;
22421;SDS011;11378;51.642;7.668;2022-12-10T05:19:36;3.60;;;3.20;;
22421;SDS011;11378;51.642;7.668;2022-12-10T05:22:02;3.85;;;3.35;;
22421;SDS011;11378;51.642;7.668;2022-12-10T05:24:47;3.78;;;3.25;;
22421;SDS011;11378;51.642;7.668;2022-12-10T05:27:13;4.13;;;3.42;;
22421;SDS011;11378;51.642;7.668;2022-12-10T05:29:41;3.47;;;3.05;;
22421;SDS011;11378;51.642;7.668;2022-12-10T05:32:08;3.95;;;3.22;;
22421;SDS011;11378;51.642;7.668;2022-12-10T05:34:34;3.42;;;3.13;;
22421;SDS011;11378;51.642;7.668;2022-12-10T05:37:01;4.13;;;3.03;;
22421;SDS011;11378;51.642;7.668;2022-12-10T05:39:27;4.03;;;3.20;;
22421;SDS011;11378;51.642;7.668;2022-12-10T05:41:53;3.15;;;2.70;;
22421;SDS011;11378;51.642;7.668;2022-12-10T05:44:20;4.20;;;3.08;;
22421;SDS011;11378;51.642;7.668;2022-12-10T05:46:46;3.55;;;2.92;;
22421;SDS011;11378;51.642;7.668;2022-12-10T05:49:12;3.80;;;3.28;;
22421;SDS011;11378;51.642;7.668;2022-12-10T05:51:39;3.35;;;2.97;;
22421;SDS011;11378;51.642;7.668;2022-12-10T05:54:06;5.63;;;3.22;;
22421;SDS011;11378;51.642;7.668;2022-12-10T05:56:34;3.83;;;3.20;;
22421;SDS011;11378;51.642;7.668;2022-12-10T05:59:02;3.30;;;3.00;;
22421;SDS011;11378;51.642;7.668;2022-12-10T06:01:30;4.07;;;3.20;;
22421;SDS011;11378;51.642;7.668;2022-12-10T06:03:57;4.20;;;2.85;;
22421;SDS011;11378;51.642;7.668;2022-12-10T06:06:25;3.65;;;3.15;;
22421;SDS011;11378;51.642;7.668;2022-12-10T06:08:51;2.85;;;2.55;;
22421;SDS011;11378;51.642;7.668;2022-12-10T06:11:18;3.20;;;2.63;;
22421;SDS011;11378;51.642;7.668;2022-12-10T06:13:45;2.65;;;2.42;;
22421;SDS011;11378;51.642;7.668;2022-12-10T06:16:12;3.70;;;3.00;;
22421;SDS011;11378;51.642;7.668;2022-12-10T06:18:40;3.08;;;2.75;;
22421;SDS011;11378;51.642;7.668;2022-12-10T06:21:07;3.03;;;2.72;;
22421;SDS011;11378;51.642;7.668;2022-12-10T06:23:34;3.92;;;3.05;;
22421;SDS011;11378;51.642;7.668;2022-12-10T06:26:04;3.00;;;2.42;;
22421;SDS011;11378;51.642;7.668;2022-12-10T06:28:31;3.25;;;2.90;;
22421;SDS011;11378;51.642;7.668;2022-12-10T06:30:58;3.05;;;2.47;;
22421;SDS011;11378;51.642;7.668;2022-12-10T06:33:25;3.20;;;2.70;;
22421;SDS011;11378;51.642;7.668;2022-12-10T06:35:52;3.72;;;2.90;;
22421;SDS011;11378;51.642;7.668;2022-12-10T06:38:18;3.38;;;2.80;;
22421;SDS011;11378;51.642;7.668;2022-12-10T06:40:44;3.13;;;2.83;;
22421;SDS011;11378;51.642;7.668;2022-12-10T06:43:11;3.38;;;2.83;;
22421;SDS011;11378;51.642;7.668;2022-12-10T06:45:38;3.17;;;2.70;;
22421;SDS011;11378;51.642;7.668;2022-12-10T06:48:05;2.75;;;2.55;;
22421;SDS011;11378;51.642;7.668;2022-12-10T06:50:31;2.80;;;2.50;;
22421;SDS011;11378;51.642;7.668;2022-12-10T06:52:57;3.30;;;2.78;;
22421;SDS011;11378;51.642;7.668;2022-12-10T06:55:24;3.17;;;2.70;;
22421;SDS011;11378;51.642;7.668;2022-12-10T06:57:51;3.05;;;2.60;;
22421;SDS011;11378;51.642;7.668;2022-12-10T07:00:17;3.10;;;2.65;;
22421;SDS011;11378;51.642;7.668;2022-12-10T07:02:44;3.42;;;2.80;;
22421;SDS011;11378;51.642;7.668;2022-12-10T07:05:10;3.55;;;2.88;;
22421;SDS011;11378;51.642;7.668;2022-12-10T07:07:36;3.53;;;2.70;;
22421;SDS011;11378;51.642;7.668;2022-12-10T07:10:03;3.53;;;2.78;;
22421;SDS011;11378;51.642;7.668;2022-12-10T07:12:30;2.78;;;2.58;;
22421;SDS011;11378;51.642;7.668;2022-12-10T07:14:57;3.85;;;2.80;;
22421;SDS011;11378;51.642;7.668;2022-12-10T07:17:24;3.30;;;2.78;;
22421;SDS011;11378;51.642;7.668;2022-12-10T07:19:50;3.20;;;2.50;;
22421;SDS011;11378;51.642;7.668;2022-12-10T07:22:16;3.33;;;2.70;;
22421;SDS011;11378;51.642;7.668;2022-12-10T07:24:43;3.08;;;2.50;;
22421;SDS011;11378;51.642;7.668;2022-12-10T07:27:09;2.85;;;2.58;;
22421;SDS011;11378;51.642;7.668;2022-12-10T07:29:35;4.65;;;2.80;;
22421;SDS011;11378;51.642;7.668;2022-12-10T07:32:02;3.15;;;2.58;;
22421;SDS011;11378;51.642;7.668;2022-12-10T07:34:28;2.95;;;2.65;;
22421;SDS011;11378;51.642;7.668;2022-12-10T07:36:55;2.75;;;2.45;;
22421;SDS011;11378;51.642;7.668;2022-12-10T07:39:21;2.83;;;2.53;;
22421;SDS011;11378;51.642;7.668;2022-12-10T07:41:48;3.08;;;2.60;;
22421;SDS011;11378;51.642;7.668;2022-12-10T07:46:45;2.92;;;2.50;;
22421;SDS011;11378;51.642;7.668;2022-12-10T07:49:11;3.03;;;2.60;;
22421;SDS011;11378;51.642;7.668;2022-12-10T07:51:38;3.75;;;2.60;;
22421;SDS011;11378;51.642;7.668;2022-12-10T07:54:04;4.03;;;2.88;;
22421;SDS011;11378;51.642;7.668;2022-12-10T07:56:30;3.67;;;3.10;;
22421;SDS011;11378;51.642;7.668;2022-12-10T07:58:57;3.15;;;2.60;;
22421;SDS011;11378;51.642;7.668;2022-12-10T08:01:24;3.05;;;2.67;;
22421;SDS011;11378;51.642;7.668;2022-12-10T08:03:52;2.63;;;2.40;;
22421;SDS011;11378;51.642;7.668;2022-12-10T08:06:19;3.20;;;2.67;;
22421;SDS011;11378;51.642;7.668;2022-12-10T08:08:46;3.03;;;2.70;;
22421;SDS011;11378;51.642;7.668;2022-12-10T08:11:13;3.03;;;2.70;;
22421;SDS011;11378;51.642;7.668;2022-12-10T08:13:40;3.03;;;2.65;;
22421;SDS011;11378;51.642;7.668;2022-12-10T08:16:07;3.90;;;3.15;;
22421;SDS011;11378;51.642;7.668;2022-12-10T08:18:34;3.63;;;2.90;;
22421;SDS011;11378;51.642;7.668;2022-12-10T08:21:04;3.10;;;2.80;;
22421;SDS011;11378;51.642;7.668;2022-12-10T08:25:57;3.75;;;2.85;;
22421;SDS011;11378;51.642;7.668;2022-12-10T08:28:24;3.15;;;2.60;;
22421;SDS011;11378;51.642;7.668;2022-12-10T08:30:50;3.17;;;2.88;;
22421;SDS011;11378;51.642;7.668;2022-12-10T08:33:16;2.78;;;2.50;;
22421;SDS011;11378;51.642;7.668;2022-12-10T08:35:43;3.72;;;2.88;;
22421;SDS011;11378;51.642;7.668;2022-12-10T08:38:09;3.47;;;2.83;;
22421;SDS011;11378;51.642;7.668;2022-12-10T08:40:38;3.50;;;2.65;;
22421;SDS011;11378;51.642;7.668;2022-12-10T08:43:05;4.00;;;3.03;;
22421;SDS011;11378;51.642;7.668;2022-12-10T08:45:31;3.42;;;2.67;;
22421;SDS011;11378;51.642;7.668;2022-12-10T08:47:57;3.72;;;3.08;;
22421;SDS011;11378;51.642;7.668;2022-12-10T08:50:23;3.28;;;2.85;;
22421;SDS011;11378;51.642;7.668;2022-12-10T08:52:50;3.70;;;3.05;;
22421;SDS011;11378;51.642;7.668;2022-12-10T08:55:16;3.17;;;2.88;;
22421;SDS011;11378;51.642;7.668;2022-12-10T08:57:42;3.33;;;2.80;;
22421;SDS011;11378;51.642;7.668;2022-12-10T09:00:09;4.28;;;3.10;;
22421;SDS011;11378;51.642;7.668;2022-12-10T09:02:35;3.58;;;2.85;;
22421;SDS011;11378;51.642;7.668;2022-12-10T09:05:02;3.22;;;2.63;;
22421;SDS011;11378;51.642;7.668;2022-12-10T09:07:28;3.97;;;3.40;;
22421;SDS011;11378;51.642;7.668;2022-12-10T09:09:54;3.53;;;3.13;;
22421;SDS011;11378;51.642;7.668;2022-12-10T09:12:21;3.83;;;2.80;;
22421;SDS011;11378;51.642;7.668;2022-12-10T09:14:47;3.30;;;2.80;;
22421;SDS011;11378;51.642;7.668;2022-12-10T09:17:14;3.25;;;2.95;;
22421;SDS011;11378;51.642;7.668;2022-12-10T09:19:40;3.08;;;2.70;;
22421;SDS011;11378;51.642;7.668;2022-12-10T09:22:06;3.05;;;2.75;;
22421;SDS011;11378;51.642;7.668;2022-12-10T09:24:34;2.92;;;2.53;;
22421;SDS011;11378;51.642;7.668;2022-12-10T09:27:00;3.20;;;2.70;;
22421;SDS011;11378;51.642;7.668;2022-12-10T09:29:27;3.60;;;3.20;;
22421;SDS011;11378;51.642;7.668;2022-12-10T09:31:53;4.10;;;3.10;;
22421;SDS011;11378;51.642;7.668;2022-12-10T09:34:20;3.53;;;2.72;;
22421;SDS011;11378;51.642;7.668;2022-12-10T09:36:46;3.35;;;2.72;;
22421;SDS011;11378;51.642;7.668;2022-12-10T09:39:13;2.75;;;2.53;;
22421;SDS011;11378;51.642;7.668;2022-12-10T09:44:11;3.03;;;2.65;;
22421;SDS011;11378;51.642;7.668;2022-12-10T09:46:48;3.17;;;2.80;;
22421;SDS011;11378;51.642;7.668;2022-12-10T09:49:32;4.18;;;2.75;;
22421;SDS011;11378;51.642;7.668;2022-12-10T09:52:03;3.00;;;2.67;;
22421;SDS011;11378;51.642;7.668;2022-12-10T09:54:35;3.00;;;2.70;;
22421;SDS011;11378;51.642;7.668;2022-12-10T09:57:04;3.42;;;2.67;;
22421;SDS011;11378;51.642;7.668;2022-12-10T09:59:36;2.92;;;2.63;;
22421;SDS011;11378;51.642;7.668;2022-12-10T10:04:29;2.92;;;2.53;;
22421;SDS011;11378;51.642;7.668;2022-12-10T10:06:56;3.25;;;2.70;;
22421;SDS011;11378;51.642;7.668;2022-12-10T10:09:22;3.50;;;2.88;;
22421;SDS011;11378;51.642;7.668;2022-12-10T10:11:49;3.10;;;2.55;;
22421;SDS011;11378;51.642;7.668;2022-12-10T10:14:25;3.30;;;2.60;;
22421;SDS011;11378;51.642;7.668;2022-12-10T10:16:54;3.00;;;2.70;;
22421;SDS011;11378;51.642;7.668;2022-12-10T10:19:27;2.67;;;2.33;;
22421;SDS011;11378;51.642;7.668;2022-12-10T10:21:55;3.92;;;3.05;;
22421;SDS011;11378;51.642;7.668;2022-12-10T10:24:22;4.13;;;2.67;;
22421;SDS011;11378;51.642;7.668;2022-12-10T10:26:51;7.88;;;3.00;;
22421;SDS011;11378;51.642;7.668;2022-12-10T10:29:19;4.20;;;3.13;;
22421;SDS011;11378;51.642;7.668;2022-12-10T10:31:47;4.18;;;3.30;;
22421;SDS011;11378;51.642;7.668;2022-12-10T10:34:20;5.68;;;3.47;;
22421;SDS011;11378;51.642;7.668;2022-12-10T10:36:47;3.80;;;3.15;;
22421;SDS011;11378;51.642;7.668;2022-12-10T10:41:53;3.38;;;2.97;;
22421;SDS011;11378;51.642;7.668;2022-12-10T10:44:20;4.40;;;2.92;;
22421;SDS011;11378;51.642;7.668;2022-12-10T10:46:51;3.28;;;2.90;;
22421;SDS011;11378;51.642;7.668;2022-12-10T10:51:47;3.50;;;2.92;;
22421;SDS011;11378;51.642;7.668;2022-12-10T10:57:00;13.35;;;7.35;;
22421;SDS011;11378;51.642;7.668;2022-12-10T10:59:31;12.07;;;8.20;;
22421;SDS011;11378;51.642;7.668;2022-12-10T11:04:47;15.60;;;8.25;;
22421;SDS011;11378;51.642;7.668;2022-12-10T11:07:18;14.85;;;8.88;;
22421;SDS011;11378;51.642;7.668;2022-12-10T11:09:45;13.77;;;7.97;;
22421;SDS011;11378;51.642;7.668;2022-12-10T11:14:56;15.68;;;7.80;;
22421;SDS011;11378;51.642;7.668;2022-12-10T11:17:24;12.40;;;6.68;;
22421;SDS011;11378;51.642;7.668;2022-12-10T11:19:55;11.68;;;6.63;;
22421;SDS011;11378;51.642;7.668;2022-12-10T11:22:27;16.85;;;7.28;;
22421;SDS011;11378;51.642;7.668;2022-12-10T11:24:53;14.02;;;7.10;;
22421;SDS011;11378;51.642;7.668;2022-12-10T11:27:33;12.60;;;6.93;;
22421;SDS011;11378;51.642;7.668;2022-12-10T11:55:27;7.85;;;4.70;;
22421;SDS011;11378;51.642;7.668;2022-12-10T12:00:27;8.02;;;5.07;;
22421;SDS011;11378;51.642;7.668;2022-12-10T12:08:25;8.23;;;4.55;;
22421;SDS011;11378;51.642;7.668;2022-12-10T12:11:08;8.00;;;4.22;;
22421;SDS011;11378;51.642;7.668;2022-12-10T12:13:59;7.20;;;4.32;;
22421;SDS011;11378;51.642;7.668;2022-12-10T12:16:30;5.15;;;3.63;;
22421;SDS011;11378;51.642;7.668;2022-12-10T12:21:36;7.93;;;3.97;;
22421;SDS011;11378;51.642;7.668;2022-12-10T12:24:04;6.72;;;4.10;;
22421;SDS011;11378;51.642;7.668;2022-12-10T12:26:40;6.60;;;4.00;;
22421;SDS011;11378;51.642;7.668;2022-12-10T12:31:41;8.20;;;4.85;;
22421;SDS011;11378;51.642;7.668;2022-12-10T12:36:37;5.90;;;4.13;;
22421;SDS011;11378;51.642;7.668;2022-12-10T12:39:13;6.40;;;3.80;;
22421;SDS011;11378;51.642;7.668;2022-12-10T12:47:02;6.80;;;3.92;;
22421;SDS011;11378;51.642;7.668;2022-12-10T12:49:31;4.88;;;3.83;;
22421;SDS011;11378;51.642;7.668;2022-12-10T12:52:02;7.15;;;4.20;;
22421;SDS011;11378;51.642;7.668;2022-12-10T12:54:32;5.28;;;3.78;;
22421;SDS011;11378;51.642;7.668;2022-12-10T12:59:33;7.82;;;4.68;;
22421;SDS011;11378;51.642;7.668;2022-12-10T13:02:06;5.57;;;4.00;;
22421;SDS011;11378;51.642;7.668;2022-12-10T13:04:33;4.88;;;3.63;;
22421;SDS011;11378;51.642;7.668;2022-12-10T13:09:48;5.07;;;3.45;;
22421;SDS011;11378;51.642;7.668;2022-12-10T13:17:32;6.35;;;3.35;;
22421;SDS011;11378;51.642;7.668;2022-12-10T13:22:54;3.88;;;3.03;;
22421;SDS011;11378;51.642;7.668;2022-12-10T13:25:22;6.10;;;3.55;;
22421;SDS011;11378;51.642;7.668;2022-12-10T13:28:17;8.20;;;5.60;;
22421;SDS011;11378;51.642;7.668;2022-12-10T13:31:05;15.10;;;9.35;;
22421;SDS011;11378;51.642;7.668;2022-12-10T13:33:44;18.45;;;10.60;;
22421;SDS011;11378;51.642;7.668;2022-12-10T13:36:11;14.35;;;7.95;;
22421;SDS011;11378;51.642;7.668;2022-12-10T13:38:41;18.15;;;7.85;;
22421;SDS011;11378;51.642;7.668;2022-12-10T13:41:20;13.20;;;7.30;;
22421;SDS011;11378;51.642;7.668;2022-12-10T13:44:25;20.95;;;12.40;;
22421;SDS011;11378;51.642;7.668;2022-12-10T13:47:05;13.73;;;9.40;;
22421;SDS011;11378;51.642;7.668;2022-12-10T13:49:52;14.95;;;9.27;;
22421;SDS011;11378;51.642;7.668;2022-12-10T13:52:21;16.05;;;9.25;;
22421;SDS011;11378;51.642;7.668;2022-12-10T14:00:07;14.70;;;8.18;;
22421;SDS011;11378;51.642;7.668;2022-12-10T14:07:57;11.80;;;7.80;;
22421;SDS011;11378;51.642;7.668;2022-12-10T14:10:33;9.30;;;6.82;;
22421;SDS011;11378;51.642;7.668;2022-12-10T14:13:00;10.77;;;6.80;;
22421;SDS011;11378;51.642;7.668;2022-12-10T14:15:28;12.43;;;6.90;;
22421;SDS011;11378;51.642;7.668;2022-12-10T14:18:06;9.23;;;6.20;;
22421;SDS011;11378;51.642;7.668;2022-12-10T14:20:32;8.45;;;6.30;;
22421;SDS011;11378;51.642;7.668;2022-12-10T14:23:04;10.13;;;6.22;;
22421;SDS011;11378;51.642;7.668;2022-12-10T14:25:50;9.65;;;6.22;;
22421;SDS011;11378;51.642;7.668;2022-12-10T14:28:17;8.90;;;5.78;;
22421;SDS011;11378;51.642;7.668;2022-12-10T14:30:45;7.13;;;5.35;;
22421;SDS011;11378;51.642;7.668;2022-12-10T14:33:18;11.05;;;6.18;;
22421;SDS011;11378;51.642;7.668;2022-12-10T14:35:49;9.10;;;5.25;;
22421;SDS011;11378;51.642;7.668;2022-12-10T14:40:43;9.23;;;5.75;;
22421;SDS011;11378;51.642;7.668;2022-12-10T14:43:19;7.60;;;5.53;;
22421;SDS011;11378;51.642;7.668;2022-12-10T14:45:47;7.18;;;4.95;;
22421;SDS011;11378;51.642;7.668;2022-12-10T14:50:43;7.60;;;5.00;;
22421;SDS011;11378;51.642;7.668;2022-12-10T14:53:11;6.32;;;4.88;;
22421;SDS011;11378;51.642;7.668;2022-12-10T14:55:39;7.32;;;4.70;;
22421;SDS011;11378;51.642;7.668;2022-12-10T14:58:05;8.50;;;4.60;;
22421;SDS011;11378;51.642;7.668;2022-12-10T15:00:35;6.32;;;4.85;;
22421;SDS011;11378;51.642;7.668;2022-12-10T15:03:07;6.18;;;4.88;;
22421;SDS011;11378;51.642;7.668;2022-12-10T15:05:34;7.18;;;4.68;;
22421;SDS011;11378;51.642;7.668;2022-12-10T15:08:02;8.15;;;5.30;;
22421;SDS011;11378;51.642;7.668;2022-12-10T15:12:55;7.90;;;4.80;;
22421;SDS011;11378;51.642;7.668;2022-12-10T15:15:29;7.38;;;5.00;;
22421;SDS011;11378;51.642;7.668;2022-12-10T15:17:59;6.57;;;4.80;;
22421;SDS011;11378;51.642;7.668;2022-12-10T15:20:29;6.43;;;4.93;;
22421;SDS011;11378;51.642;7.668;2022-12-10T15:23:05;6.10;;;4.07;;
22421;SDS011;11378;51.642;7.668;2022-12-10T15:25:40;6.03;;;4.47;;
22421;SDS011;11378;51.642;7.668;2022-12-10T15:28:41;7.18;;;5.03;;
22421;SDS011;11378;51.642;7.668;2022-12-10T15:31:11;7.35;;;4.57;;
22421;SDS011;11378;51.642;7.668;2022-12-10T15:33:42;7.45;;;4.70;;
22421;SDS011;11378;51.642;7.668;2022-12-10T15:36:30;5.82;;;4.40;;
22421;SDS011;11378;51.642;7.668;2022-12-10T15:38:55;6.63;;;4.50;;
22421;SDS011;11378;51.642;7.668;2022-12-10T15:44:18;6.65;;;4.30;;
22421;SDS011;11378;51.642;7.668;2022-12-10T15:46:48;5.00;;;3.80;;
22421;SDS011;11378;51.642;7.668;2022-12-10T15:49:15;5.90;;;4.65;;
22421;SDS011;11378;51.642;7.668;2022-12-10T15:51:43;8.45;;;5.88;;
22421;SDS011;11378;51.642;7.668;2022-12-10T15:54:18;11.98;;;6.63;;
22421;SDS011;11378;51.642;7.668;2022-12-10T15:56:45;8.70;;;6.07;;
22421;SDS011;11378;51.642;7.668;2022-12-10T15:59:12;7.72;;;5.60;;
22421;SDS011;11378;51.642;7.668;2022-12-10T16:01:39;8.52;;;5.43;;
22421;SDS011;11378;51.642;7.668;2022-12-10T16:04:05;8.23;;;5.47;;
22421;SDS011;11378;51.642;7.668;2022-12-10T16:06:32;13.52;;;5.68;;
22421;SDS011;11378;51.642;7.668;2022-12-10T16:08:58;7.63;;;5.28;;
22421;SDS011;11378;51.642;7.668;2022-12-10T16:11:25;8.55;;;5.45;;
22421;SDS011;11378;51.642;7.668;2022-12-10T16:13:52;7.55;;;5.22;;
22421;SDS011;11378;51.642;7.668;2022-12-10T16:16:20;4.60;;;3.58;;
22421;SDS011;11378;51.642;7.668;2022-12-10T16:18:47;9.82;;;5.32;;
22421;SDS011;11378;51.642;7.668;2022-12-10T16:21:13;9.50;;;5.40;;
22421;SDS011;11378;51.642;7.668;2022-12-10T16:23:40;6.40;;;4.95;;
22421;SDS011;11378;51.642;7.668;2022-12-10T16:26:12;6.60;;;5.00;;
22421;SDS011;11378;51.642;7.668;2022-12-10T16:28:39;7.32;;;4.75;;
22421;SDS011;11378;51.642;7.668;2022-12-10T16:31:07;6.65;;;4.60;;
22421;SDS011;11378;51.642;7.668;2022-12-10T16:33:35;6.93;;;4.35;;
22421;SDS011;11378;51.642;7.668;2022-12-10T16:36:01;6.70;;;4.90;;
22421;SDS011;11378;51.642;7.668;2022-12-10T16:38:28;6.88;;;4.85;;
22421;SDS011;11378;51.642;7.668;2022-12-10T16:40:54;6.88;;;4.50;;
22421;SDS011;11378;51.642;7.668;2022-12-10T16:43:22;6.32;;;4.72;;
22421;SDS011;11378;51.642;7.668;2022-12-10T16:45:49;6.63;;;4.40;;
22421;SDS011;11378;51.642;7.668;2022-12-10T16:48:16;6.88;;;4.57;;
22421;SDS011;11378;51.642;7.668;2022-12-10T16:50:43;5.13;;;4.20;;
22421;SDS011;11378;51.642;7.668;2022-12-10T16:53:13;7.90;;;4.45;;
22421;SDS011;11378;51.642;7.668;2022-12-10T16:55:40;8.23;;;4.45;;
22421;SDS011;11378;51.642;7.668;2022-12-10T16:58:10;5.07;;;4.25;;
22421;SDS011;11378;51.642;7.668;2022-12-10T17:00:39;7.88;;;4.55;;
22421;SDS011;11378;51.642;7.668;2022-12-10T17:03:09;4.82;;;3.40;;